Time;durP1;ratioP1;P1;durP2;ratioP2;P2;SDS_P1;SDS_P2;PMS_P1;PMS_P2;Temp;Humidity;BMP_temperature;BMP_pressure;BME280_temperature;BME280_humidity;BME280_pressure;Samples;Min_cycle;Max_cycle;Signal;HPM_P1;HPM_P2
2023/07/21 00:01:10;;;;;;;8.38;3.22;;;;;;;13.79;100.00;100528.59;5043992;28;20049;-65
2023/07/21 00:03:41;;;;;;;7.85;2.80;;;;;;;13.95;100.00;100533.88;5034599;28;20249;-65
2023/07/21 00:06:09;;;;;;;8.75;2.88;;;;;;;14.00;100.00;100537.06;5041357;28;20049;-65
2023/07/21 00:08:36;;;;;;;10.23;2.85;;;;;;;14.03;100.00;100533.44;5033595;28;20046;-65
2023/07/21 00:11:03;;;;;;;8.60;3.05;;;;;;;13.87;100.00;100528.16;5039322;28;20048;-65
2023/07/21 00:13:35;;;;;;;10.85;2.83;;;;;;;13.79;100.00;100515.44;5018129;28;20080;-65
2023/07/21 00:16:03;;;;;;;9.85;3.22;;;;;;;13.96;100.00;100535.53;5043146;28;20048;-65
2023/07/21 00:18:33;;;;;;;9.52;3.88;;;;;;;13.83;100.00;100527.47;5042871;28;20049;-65
2023/07/21 00:21:00;;;;;;;10.48;2.92;;;;;;;13.78;100.00;100513.72;5028120;28;20049;-65
2023/07/21 00:23:30;;;;;;;12.73;4.03;;;;;;;13.82;100.00;100523.13;5041730;28;20383;-65
2023/07/21 00:25:57;;;;;;;8.52;3.03;;;;;;;13.74;100.00;100528.00;5035804;28;20052;-65
2023/07/21 00:28:26;;;;;;;8.32;3.33;;;;;;;13.70;100.00;100517.69;5043658;28;20049;-65
2023/07/21 00:30:53;;;;;;;10.07;3.58;;;;;;;13.72;100.00;100523.72;5034074;28;20050;-65
2023/07/21 00:33:19;;;;;;;10.57;3.88;;;;;;;13.74;100.00;100527.13;5052111;28;20045;-65
2023/07/21 00:35:46;;;;;;;9.93;3.50;;;;;;;13.65;100.00;100528.47;5037988;28;20053;-65
2023/07/21 00:38:12;;;;;;;10.60;3.85;;;;;;;13.67;100.00;100524.81;5032341;28;20053;-65
2023/07/21 00:40:41;;;;;;;11.75;4.35;;;;;;;13.60;100.00;100520.00;5023634;28;20046;-65
2023/07/21 00:43:16;;;;;;;11.00;3.42;;;;;;;13.65;100.00;100524.06;5045582;28;20685;-65
2023/07/21 00:45:46;;;;;;;10.98;3.88;;;;;;;13.71;100.00;100529.94;5026936;28;20053;-65
2023/07/21 00:48:17;;;;;;;9.45;3.20;;;;;;;13.66;100.00;100524.91;5050182;28;20049;-65
2023/07/21 00:50:47;;;;;;;11.10;3.30;;;;;;;13.65;100.00;100521.44;5022020;28;20100;-65
2023/07/21 00:53:14;;;;;;;11.30;3.33;;;;;;;13.60;100.00;100514.72;5033312;28;20048;-65
2023/07/21 00:55:42;;;;;;;8.25;2.83;;;;;;;13.53;100.00;100522.09;5041451;28;20575;-65
2023/07/21 00:58:09;;;;;;;8.25;3.30;;;;;;;13.49;100.00;100517.91;5032515;28;20041;-65
2023/07/21 01:00:40;;;;;;;8.20;3.03;;;;;;;13.46;100.00;100525.97;5034204;28;20053;-65
2023/07/21 01:03:12;;;;;;;10.82;4.00;;;;;;;13.46;100.00;100512.84;5032022;28;20046;-65
2023/07/21 01:05:42;;;;;;;11.02;3.83;;;;;;;13.43;100.00;100516.47;5047667;28;20148;-65
2023/07/21 01:08:11;;;;;;;12.25;3.45;;;;;;;13.39;100.00;100520.19;5045810;28;20056;-65
2023/07/21 01:10:39;;;;;;;10.77;3.47;;;;;;;13.27;100.00;100515.53;5028987;28;20075;-65
2023/07/21 01:13:09;;;;;;;10.80;2.97;;;;;;;13.17;100.00;100509.91;5044844;28;20053;-65
2023/07/21 01:15:43;;;;;;;8.25;3.08;;;;;;;13.31;100.00;100517.09;5050518;28;20471;-64
2023/07/21 01:18:12;;;;;;;8.88;3.47;;;;;;;13.40;100.00;100505.25;5041888;28;20462;-65
2023/07/21 01:20:40;;;;;;;9.15;3.17;;;;;;;13.32;100.00;100500.41;5024090;28;20050;-65
2023/07/21 01:23:17;;;;;;;9.32;3.35;;;;;;;13.34;100.00;100506.44;5044001;28;20057;-64
2023/07/21 01:25:46;;;;;;;9.90;3.53;;;;;;;13.23;100.00;100504.34;5031186;28;20056;-65
2023/07/21 01:28:15;;;;;;;10.15;3.70;;;;;;;13.35;100.00;100504.63;5031086;28;20095;-65
2023/07/21 01:30:45;;;;;;;10.02;3.78;;;;;;;13.34;100.00;100500.34;5027838;28;20077;-65
2023/07/21 01:33:15;;;;;;;11.52;3.65;;;;;;;13.24;100.00;100499.91;5031430;28;20510;-65
2023/07/21 01:35:42;;;;;;;10.35;4.03;;;;;;;13.14;100.00;100496.94;5024098;28;20060;-65
2023/07/21 01:38:10;;;;;;;10.73;3.47;;;;;;;13.16;100.00;100496.88;5030796;28;20053;-65
2023/07/21 01:40:39;;;;;;;12.85;3.65;;;;;;;13.23;100.00;100488.56;5026432;28;20060;-65
2023/07/21 01:43:07;;;;;;;10.20;3.72;;;;;;;13.12;100.00;100488.28;5030965;28;20062;-65
2023/07/21 01:45:34;;;;;;;8.55;3.13;;;;;;;13.09;100.00;100477.91;5038438;28;20127;-65
2023/07/21 01:48:00;;;;;;;10.48;3.63;;;;;;;13.05;100.00;100479.88;5035495;28;20476;-65
2023/07/21 01:50:29;;;;;;;9.50;3.35;;;;;;;13.07;100.00;100480.63;5002028;28;20499;-65
2023/07/21 01:53:00;;;;;;;8.27;2.90;;;;;;;13.04;100.00;100466.78;5030588;28;20084;-65
2023/07/21 01:55:32;;;;;;;11.35;3.60;;;;;;;13.19;100.00;100473.88;5030675;28;20054;-65
2023/07/21 01:58:03;;;;;;;9.80;3.47;;;;;;;13.10;100.00;100469.09;5031357;28;20046;-65
2023/07/21 02:00:37;;;;;;;10.68;3.38;;;;;;;13.10;100.00;100469.09;5027030;28;20053;-65
2023/07/21 02:03:17;;;;;;;10.05;3.58;;;;;;;13.14;100.00;100469.78;5030286;28;20384;-65
2023/07/21 02:05:45;;;;;;;11.38;3.97;;;;;;;13.06;100.00;100468.41;5012658;28;20507;-65
2023/07/21 02:08:12;;;;;;;8.68;2.97;;;;;;;13.05;100.00;100468.47;5018792;28;20050;-65
2023/07/21 02:10:39;;;;;;;11.00;3.80;;;;;;;13.07;100.00;100467.47;5026140;28;20085;-65
2023/07/21 02:13:06;;;;;;;8.90;2.85;;;;;;;13.07;100.00;100467.47;5031267;28;20119;-65
2023/07/21 02:15:33;;;;;;;8.60;2.95;;;;;;;13.07;100.00;100462.22;5030867;28;20076;-65
2023/07/21 02:17:59;;;;;;;9.05;3.47;;;;;;;12.89;100.00;100461.41;5023624;28;20664;-65
2023/07/21 02:20:26;;;;;;;11.20;3.20;;;;;;;12.94;100.00;100453.28;5021596;28;20062;-65
2023/07/21 02:22:53;;;;;;;8.38;2.83;;;;;;;12.97;100.00;100466.25;5030334;28;20046;-65
2023/07/21 02:25:19;;;;;;;7.22;2.17;;;;;;;12.92;100.00;100455.13;5030745;28;20072;-65
2023/07/21 02:27:46;;;;;;;9.32;2.83;;;;;;;12.94;100.00;100457.69;5029966;28;20041;-65
2023/07/21 02:30:13;;;;;;;9.82;3.00;;;;;;;12.85;100.00;100453.75;5022639;28;20062;-64
2023/07/21 02:32:40;;;;;;;8.38;3.00;;;;;;;12.82;100.00;100459.16;5028692;28;20045;-65
2023/07/21 02:35:08;;;;;;;8.13;2.85;;;;;;;12.63;100.00;100446.97;5029714;28;20560;-65
2023/07/21 02:37:36;;;;;;;8.88;2.90;;;;;;;12.59;100.00;100450.69;5029732;28;20057;-65
2023/07/21 02:40:06;;;;;;;9.75;2.50;;;;;;;12.73;100.00;100460.50;5029439;28;20049;-65
2023/07/21 02:42:35;;;;;;;7.13;2.50;;;;;;;12.59;100.00;100453.31;5016130;28;20093;-65
2023/07/21 02:45:03;;;;;;;7.50;2.15;;;;;;;12.67;100.00;100452.91;5029584;28;20484;-65
2023/07/21 02:47:29;;;;;;;7.15;2.38;;;;;;;12.61;100.00;100456.72;5029732;28;20063;-64
2023/07/21 02:49:56;;;;;;;7.07;2.42;;;;;;;12.59;100.00;100455.94;5028142;28;20049;-65
2023/07/21 02:52:23;;;;;;;6.68;2.08;;;;;;;12.61;100.00;100450.63;5030595;28;20406;-65
2023/07/21 02:54:49;;;;;;;8.07;2.60;;;;;;;12.58;100.00;100448.97;5030627;28;20384;-65
2023/07/21 02:57:16;;;;;;;8.90;2.03;;;;;;;12.44;100.00;100451.47;5026806;28;20049;-65
2023/07/21 02:59:43;;;;;;;6.75;2.15;;;;;;;12.42;100.00;100442.81;5026692;28;20451;-65
2023/07/21 03:02:10;;;;;;;6.13;2.15;;;;;;;12.40;100.00;100444.66;5029532;28;20115;-65
2023/07/21 03:04:42;;;;;;;6.00;2.13;;;;;;;12.42;100.00;100448.06;5011661;28;20076;-65
2023/07/21 03:07:11;;;;;;;7.93;2.43;;;;;;;12.37;100.00;100443.03;5024597;28;20049;-65
2023/07/21 03:09:37;;;;;;;7.50;2.30;;;;;;;12.33;100.00;100447.59;5028581;28;20058;-64
2023/07/21 03:12:05;;;;;;;7.10;2.25;;;;;;;12.40;100.00;100447.28;5014544;28;20256;-64
2023/07/21 03:14:31;;;;;;;6.45;2.40;;;;;;;12.38;100.00;100447.38;5028986;28;20068;-64
2023/07/21 03:16:58;;;;;;;10.32;2.80;;;;;;;12.24;100.00;100445.41;5015275;28;20042;-64
2023/07/21 03:19:24;;;;;;;8.27;2.17;;;;;;;12.22;100.00;100449.06;5030759;28;20060;-63
2023/07/21 03:21:51;;;;;;;6.70;2.35;;;;;;;12.09;100.00;100454.03;5033137;28;20050;-64
2023/07/21 03:24:18;;;;;;;4.75;1.60;;;;;;;12.14;100.00;100450.25;5033088;28;20056;-64
2023/07/21 03:26:44;;;;;;;5.40;1.85;;;;;;;12.14;100.00;100455.50;5032821;28;20056;-64
2023/07/21 03:29:11;;;;;;;6.95;2.00;;;;;;;12.05;100.00;100452.50;5032707;28;20704;-64
2023/07/21 03:31:37;;;;;;;5.18;1.50;;;;;;;12.17;100.00;100446.66;5031264;28;20080;-64
2023/07/21 03:34:04;;;;;;;3.83;1.50;;;;;;;12.02;100.00;100440.34;5033610;28;20460;-64
2023/07/21 03:36:31;;;;;;;4.88;1.63;;;;;;;11.91;100.00;100435.63;5015785;28;20053;-64
2023/07/21 03:38:58;;;;;;;4.55;1.40;;;;;;;11.99;100.00;100437.91;5032520;28;20041;-64
2023/07/21 03:41:24;;;;;;;5.07;1.50;;;;;;;11.95;100.00;100439.81;5031597;28;20064;-64
2023/07/21 03:43:51;;;;;;;5.53;1.40;;;;;;;12.02;100.00;100445.59;5033178;28;20132;-64
2023/07/21 03:46:18;;;;;;;4.50;1.48;;;;;;;11.94;100.00;100432.00;5035126;28;20053;-64
2023/07/21 03:48:45;;;;;;;7.25;1.70;;;;;;;11.83;100.00;100439.50;5033518;28;20076;-64
2023/07/21 03:51:11;;;;;;;5.55;1.95;;;;;;;11.89;100.00;100447.09;5019149;28;20556;-64
2023/07/21 03:53:38;;;;;;;5.95;1.60;;;;;;;11.85;100.00;100433.28;5033342;28;20133;-64
2023/07/21 03:56:05;;;;;;;5.55;1.60;;;;;;;11.84;100.00;100434.19;5032877;28;20054;-64
2023/07/21 03:58:33;;;;;;;4.47;1.45;;;;;;;11.83;100.00;100437.75;5032740;28;20037;-64
2023/07/21 04:01:00;;;;;;;4.88;1.52;;;;;;;11.82;100.00;100424.69;5032181;28;20057;-64
2023/07/21 04:03:28;;;;;;;3.38;1.40;;;;;;;11.83;100.00;100435.13;5033041;28;20049;-64
2023/07/21 04:05:54;;;;;;;8.07;1.70;;;;;;;11.90;100.00;100433.94;5033121;28;20053;-64
2023/07/21 04:08:21;;;;;;;4.03;1.38;;;;;;;11.87;100.00;100433.19;5032607;28;20415;-64
2023/07/21 04:10:48;;;;;;;4.65;1.80;;;;;;;11.75;100.00;100430.22;5028188;28;20136;-64
2023/07/21 04:13:14;;;;;;;3.92;1.40;;;;;;;11.62;100.00;100438.75;5032462;28;20533;-64
2023/07/21 04:15:41;;;;;;;3.70;1.50;;;;;;;11.60;100.00;100436.22;5019745;28;20475;-64
2023/07/21 04:18:08;;;;;;;3.75;1.30;;;;;;;11.55;100.00;100430.31;5032780;28;20050;-64
2023/07/21 04:20:34;;;;;;;4.68;1.65;;;;;;;11.61;100.00;100430.03;5022033;28;20046;-63
2023/07/21 04:23:02;;;;;;;3.97;1.45;;;;;;;11.64;100.00;100429.03;5028745;28;20468;-64
2023/07/21 04:25:28;;;;;;;4.40;1.60;;;;;;;11.61;100.00;100421.31;5031686;28;20077;-63
2023/07/21 04:27:55;;;;;;;4.50;1.40;;;;;;;11.84;100.00;100425.47;5031904;28;20053;-64
2023/07/21 04:30:22;;;;;;;4.13;1.40;;;;;;;11.86;100.00;100423.63;5024789;28;20467;-64
2023/07/21 04:32:50;;;;;;;4.47;1.50;;;;;;;12.02;100.00;100423.75;5031230;28;20049;-64
2023/07/21 04:35:17;;;;;;;5.10;1.65;;;;;;;12.42;100.00;100434.94;5031787;28;20132;-64
2023/07/21 04:37:44;;;;;;;4.63;1.73;;;;;;;12.73;100.00;100434.25;5030558;28;20045;-64
2023/07/21 04:40:11;;;;;;;5.22;1.60;;;;;;;12.70;100.00;100432.59;5030573;28;20054;-64
2023/07/21 04:42:39;;;;;;;7.38;2.10;;;;;;;13.25;100.00;100426.22;5031733;28;20128;-64
2023/07/21 04:45:11;;;;;;;4.35;1.73;;;;;;;13.88;100.00;100429.00;5031510;28;20506;-64
2023/07/21 04:47:41;;;;;;;7.90;2.13;;;;;;;14.47;100.00;100427.34;5017818;28;20096;-64
2023/07/21 04:50:08;;;;;;;4.50;1.73;;;;;;;14.57;100.00;100432.91;5010694;28;20082;-64
2023/07/21 04:52:36;;;;;;;5.95;1.52;;;;;;;14.78;100.00;100433.47;5023330;28;20061;-64
2023/07/21 04:55:05;;;;;;;4.90;1.30;;;;;;;14.59;100.00;100439.00;5017190;28;20045;-64
2023/07/21 04:57:34;;;;;;;5.28;1.67;;;;;;;14.16;100.00;100413.31;5030830;28;20050;-64
2023/07/21 05:00:02;;;;;;;8.07;1.60;;;;;;;13.53;100.00;100432.66;5029900;28;20067;-64
2023/07/21 05:02:28;;;;;;;4.88;1.45;;;;;;;13.34;100.00;100427.53;5031011;28;20060;-64
2023/07/21 05:05:01;;;;;;;5.03;1.40;;;;;;;13.26;100.00;100425.31;5030283;28;20053;-64
2023/07/21 05:07:27;;;;;;;6.10;1.40;;;;;;;13.03;100.00;100420.41;5030208;28;20407;-64
2023/07/21 05:09:55;;;;;;;7.85;1.50;;;;;;;13.00;100.00;100412.72;5027281;28;20041;-64
2023/07/21 05:12:24;;;;;;;6.80;1.40;;;;;;;12.88;100.00;100416.81;5010878;28;20054;-64
2023/07/21 05:14:51;;;;;;;4.45;1.30;;;;;;;12.59;100.00;100413.06;5023982;28;20057;-64
2023/07/21 05:17:18;;;;;;;4.35;1.30;;;;;;;12.71;100.00;100417.69;5024010;28;20046;-64
2023/07/21 05:19:45;;;;;;;5.32;1.52;;;;;;;12.54;100.00;100408.06;5018578;28;20042;-64
2023/07/21 05:22:13;;;;;;;4.47;1.70;;;;;;;12.54;100.00;100408.91;4989373;28;1184160;-64
2023/07/21 05:24:42;;;;;;;5.53;1.85;;;;;;;12.77;100.00;100392.91;5023269;28;20080;-64
2023/07/21 05:27:10;;;;;;;5.32;1.67;;;;;;;12.84;100.00;100410.88;5031178;28;20049;-64
2023/07/21 05:29:37;;;;;;;3.80;1.52;;;;;;;12.92;100.00;100420.97;5029253;28;20053;-64
2023/07/21 05:32:05;;;;;;;5.28;1.80;;;;;;;13.00;100.00;100404.81;5017173;28;20507;-64
2023/07/21 05:34:33;;;;;;;5.50;1.50;;;;;;;12.90;100.00;100413.16;5032157;28;20045;-64
2023/07/21 05:37:00;;;;;;;4.57;1.48;;;;;;;12.85;100.00;100409.09;5031638;28;20053;-64
2023/07/21 05:39:30;;;;;;;7.45;1.60;;;;;;;12.89;100.00;100402.72;5029640;28;20058;-64
2023/07/21 05:41:58;;;;;;;6.55;1.73;;;;;;;13.26;100.00;100412.16;5013387;28;20510;-64
2023/07/21 05:44:26;;;;;;;5.50;1.50;;;;;;;12.94;100.00;100395.47;5026794;28;20055;-64
2023/07/21 05:46:53;;;;;;;6.72;2.03;;;;;;;13.06;100.00;100409.75;5030390;28;20141;-64
2023/07/21 05:49:21;;;;;;;5.05;1.50;;;;;;;13.12;100.00;100404.19;5031097;28;20084;-64
2023/07/21 05:51:48;;;;;;;5.55;1.73;;;;;;;13.04;100.00;100403.72;5029520;28;20450;-64
2023/07/21 05:54:15;;;;;;;6.10;1.70;;;;;;;12.96;100.00;100408.53;5031383;28;20049;-64
2023/07/21 05:56:42;;;;;;;5.40;1.85;;;;;;;13.17;100.00;100401.28;5027229;28;20460;-64
2023/07/21 05:59:09;;;;;;;7.22;1.85;;;;;;;13.20;100.00;100401.97;5030000;28;20057;-63
2023/07/21 06:01:36;;;;;;;6.43;1.77;;;;;;;13.01;100.00;100414.38;5027809;28;20049;-64
2023/07/21 06:04:05;;;;;;;6.57;1.75;;;;;;;13.21;100.00;100398.41;5030977;28;20502;-64
2023/07/21 06:06:32;;;;;;;6.05;1.70;;;;;;;13.08;100.00;100405.25;5030799;28;20541;-64
2023/07/21 06:08:59;;;;;;;6.60;1.92;;;;;;;13.17;100.00;100402.13;5023208;28;20042;-64
2023/07/21 06:11:26;;;;;;;5.50;1.83;;;;;;;13.19;100.00;100395.03;5009300;28;20750;-64
2023/07/21 06:13:54;;;;;;;5.97;1.80;;;;;;;13.17;100.00;100380.25;5030292;28;20091;-64
2023/07/21 06:16:22;;;;;;;5.20;1.70;;;;;;;13.19;100.00;100389.75;5019471;28;20120;-64
2023/07/21 06:18:51;;;;;;;4.93;1.67;;;;;;;13.03;100.00;100391.50;5028141;28;20060;-64
2023/07/21 06:21:20;;;;;;;6.65;1.85;;;;;;;13.14;100.00;100390.91;5027234;28;20099;-64
2023/07/21 06:23:48;;;;;;;9.20;2.38;;;;;;;13.18;100.00;100384.59;5030087;28;20059;-63
2023/07/21 06:26:15;;;;;;;4.75;1.52;;;;;;;13.15;100.00;100382.97;5030588;28;20084;-65
2023/07/21 06:28:42;;;;;;;7.43;1.58;;;;;;;13.27;100.00;100390.19;5025219;28;20372;-63
2023/07/21 06:31:10;;;;;;;6.07;1.48;;;;;;;13.35;100.00;100388.94;5024748;28;20104;-63
2023/07/21 06:33:38;;;;;;;6.53;1.60;;;;;;;13.29;100.00;100388.31;5026761;28;20049;-63
2023/07/21 06:36:05;;;;;;;4.72;1.60;;;;;;;13.40;100.00;100393.03;5028458;28;20056;-63
2023/07/21 06:38:33;;;;;;;7.85;1.75;;;;;;;13.40;100.00;100392.16;5026091;28;20057;-64
2023/07/21 06:41:04;;;;;;;5.63;1.77;;;;;;;13.40;100.00;100385.16;5010995;28;20046;-63
2023/07/21 06:43:34;;;;;;;5.03;1.73;;;;;;;13.32;100.00;100382.09;5010580;28;20457;-65
2023/07/21 06:46:02;;;;;;;6.47;1.80;;;;;;;13.40;100.00;100384.28;5028463;28;20154;-64
2023/07/21 06:48:29;;;;;;;7.07;1.60;;;;;;;13.44;100.00;100381.41;5028261;28;20080;-64
2023/07/21 06:50:56;;;;;;;4.13;1.38;;;;;;;13.33;100.00;100394.28;5024333;28;20148;-64
2023/07/21 06:53:23;;;;;;;7.68;2.00;;;;;;;13.41;100.00;100386.00;5028170;28;20411;-64
2023/07/21 06:55:51;;;;;;;4.88;1.75;;;;;;;13.63;100.00;100396.16;5012517;28;20100;-64
2023/07/21 06:58:18;;;;;;;6.40;1.60;;;;;;;13.76;100.00;100396.34;5025248;28;20049;-63
2023/07/21 07:00:46;;;;;;;4.97;1.73;;;;;;;13.80;100.00;100393.44;5022501;28;20053;-64
2023/07/21 07:03:13;;;;;;;4.85;1.50;;;;;;;13.59;100.00;100363.09;5035268;28;20155;-64
2023/07/21 07:05:44;;;;;;;5.03;1.45;;;;;;;13.92;100.00;100402.44;5033166;28;20445;-64
2023/07/21 07:08:12;;;;;;;4.97;1.42;;;;;;;14.04;100.00;100396.47;5028350;28;20059;-63
2023/07/21 07:10:39;;;;;;;5.78;1.42;;;;;;;13.98;100.00;100402.06;5024314;28;20049;-64
2023/07/21 07:13:06;;;;;;;3.58;1.27;;;;;;;13.88;100.00;100376.34;5034958;28;20057;-63
2023/07/21 07:15:33;;;;;;;5.50;1.60;;;;;;;13.99;100.00;100389.78;5028309;28;20322;-64
2023/07/21 07:17:59;;;;;;;5.45;1.50;;;;;;;13.98;100.00;100395.97;5027818;28;20037;-63
2023/07/21 07:20:28;;;;;;;6.18;1.60;;;;;;;13.98;100.00;100391.53;5022175;28;20103;-64
2023/07/21 07:22:56;;;;;;;4.78;1.35;;;;;;;14.07;100.00;100386.69;5027902;28;20056;-64
2023/07/21 07:25:25;;;;;;;6.65;1.98;;;;;;;14.30;100.00;100398.53;5027756;28;20099;-64
2023/07/21 07:27:52;;;;;;;5.85;1.70;;;;;;;14.11;100.00;100393.47;5024984;28;20482;-64
2023/07/21 07:30:20;;;;;;;6.88;1.70;;;;;;;13.92;100.00;100391.91;5020565;28;20053;-64
2023/07/21 07:32:48;;;;;;;6.90;2.10;;;;;;;14.04;100.00;100398.22;5027619;28;20059;-64
2023/07/21 07:35:16;;;;;;;5.88;1.92;;;;;;;14.16;100.00;100392.25;5026869;28;20055;-63
2023/07/21 07:37:43;;;;;;;6.05;1.75;;;;;;;14.31;100.00;100398.44;5026817;28;20480;-63
2023/07/21 07:40:12;;;;;;;5.82;1.80;;;;;;;14.37;100.00;100391.94;5025643;28;20172;-63
2023/07/21 07:42:40;;;;;;;8.20;2.05;;;;;;;14.36;100.00;100393.75;5013573;28;20064;-64
2023/07/21 07:45:07;;;;;;;9.52;2.58;;;;;;;14.41;100.00;100399.59;5027041;28;20480;-64
2023/07/21 07:47:35;;;;;;;8.27;2.00;;;;;;;14.52;100.00;100400.72;5027333;28;20403;-64
2023/07/21 07:50:04;;;;;;;5.32;1.58;;;;;;;14.58;100.00;100395.97;5009701;28;20057;-64
2023/07/21 07:52:33;;;;;;;8.23;1.88;;;;;;;14.53;100.00;100398.00;5038891;28;20057;-64
2023/07/21 07:55:03;;;;;;;8.27;2.08;;;;;;;14.64;100.00;100400.03;5025813;28;20160;-64
2023/07/21 07:57:34;;;;;;;6.78;1.75;;;;;;;14.63;100.00;100405.41;5006539;28;20102;-64
2023/07/21 08:00:08;;;;;;;5.45;1.63;;;;;;;14.26;100.00;100399.66;4998706;28;20046;-64
2023/07/21 08:02:34;;;;;;;6.82;1.88;;;;;;;14.51;100.00;100396.41;5020791;28;20510;-64
2023/07/21 08:05:01;;;;;;;6.13;1.80;;;;;;;14.20;100.00;100396.44;5029144;28;20142;-64
2023/07/21 08:07:28;;;;;;;5.25;1.65;;;;;;;14.39;100.00;100393.53;5031142;28;20372;-64
2023/07/21 08:09:54;;;;;;;6.10;1.80;;;;;;;14.53;100.00;100398.00;5027052;28;20049;-64
2023/07/21 08:12:21;;;;;;;5.50;1.50;;;;;;;14.64;100.00;100394.75;5030852;28;20049;-64
2023/07/21 08:14:48;;;;;;;5.32;1.80;;;;;;;14.73;100.00;100388.94;5031901;28;20415;-64
2023/07/21 08:17:14;;;;;;;6.45;1.60;;;;;;;14.98;100.00;100398.00;5031938;28;20056;-64
2023/07/21 08:19:41;;;;;;;8.30;1.98;;;;;;;14.86;100.00;100399.59;5027645;28;20130;-64
2023/07/21 08:22:08;;;;;;;6.13;1.90;;;;;;;15.00;100.00;100390.84;5029214;28;20064;-64
2023/07/21 08:24:35;;;;;;;4.97;1.50;;;;;;;15.21;100.00;100398.34;5032218;28;20042;-64
2023/07/21 08:27:07;;;;;;;7.80;1.77;;;;;;;15.26;100.00;100386.56;5031306;28;20051;-64
2023/07/21 08:29:34;;;;;;;8.05;2.00;;;;;;;15.25;100.00;100395.44;5025780;28;20076;-64
2023/07/21 08:32:01;;;;;;;6.85;1.98;;;;;;;15.29;100.00;100383.75;5029272;28;20065;-64
2023/07/21 08:34:27;;;;;;;7.53;1.90;;;;;;;15.46;100.00;100387.13;5028820;28;20048;-64
2023/07/21 08:36:54;;;;;;;5.65;1.75;;;;;;;15.68;100.00;100386.59;5029162;28;20053;-64
2023/07/21 08:39:21;;;;;;;7.40;1.85;;;;;;;15.53;100.00;100376.06;5028606;28;20053;-64
2023/07/21 08:41:50;;;;;;;7.78;1.80;;;;;;;15.95;100.00;100402.44;5026928;28;20059;-64
2023/07/21 08:44:19;;;;;;;5.88;1.92;;;;;;;15.71;100.00;100405.69;5030302;28;20057;-64
2023/07/21 08:46:46;;;;;;;7.75;1.88;;;;;;;15.86;100.00;100395.13;5030385;28;20081;-64
2023/07/21 08:49:17;;;;;;;6.40;1.73;;;;;;;15.82;100.00;100402.41;5029048;28;20660;-64
2023/07/21 08:51:44;;;;;;;7.32;2.20;;;;;;;15.70;100.00;100396.06;5016143;28;20505;-64
2023/07/21 08:54:11;;;;;;;6.93;2.00;;;;;;;15.81;100.00;100408.66;5030036;28;20057;-64
2023/07/21 08:56:38;;;;;;;7.68;2.13;;;;;;;15.84;100.00;100386.47;5030536;28;20419;-64
2023/07/21 08:59:04;;;;;;;10.30;2.65;;;;;;;15.76;100.00;100405.44;5009305;28;20049;-64
2023/07/21 09:01:38;;;;;;;6.35;2.15;;;;;;;16.02;100.00;100411.66;5014970;28;20100;-64
2023/07/21 09:04:20;;;;;;;8.75;2.33;;;;;;;15.66;100.00;100405.16;5024419;28;20442;-65
2023/07/21 09:07:04;;;;;;;6.95;2.10;;;;;;;16.06;100.00;100407.00;5021132;28;20505;-65
2023/07/21 09:09:32;;;;;;;10.30;3.75;;;;;;;16.15;100.00;100406.44;5010751;28;20052;-65
2023/07/21 09:12:04;;;;;;;8.82;2.35;;;;;;;16.28;100.00;100409.09;5030581;28;20150;-65
2023/07/21 09:14:38;;;;;;;7.72;2.33;;;;;;;16.22;100.00;100397.16;5017319;28;20045;-65
2023/07/21 09:17:06;;;;;;;6.75;2.35;;;;;;;16.30;100.00;100408.03;5011310;28;20300;-65
2023/07/21 09:19:38;;;;;;;8.60;2.63;;;;;;;16.08;100.00;100413.06;5028637;28;20411;-65
2023/07/21 09:22:07;;;;;;;9.65;2.88;;;;;;;16.28;100.00;100401.16;5011569;28;20076;-65
2023/07/21 09:24:37;;;;;;;8.57;2.70;;;;;;;16.11;100.00;100411.06;5030335;28;20053;-65
2023/07/21 09:27:15;;;;;;;9.90;3.08;;;;;;;15.98;100.00;100411.97;5027203;28;20084;-64
2023/07/21 09:29:43;;;;;;;8.55;3.40;;;;;;;15.89;100.00;100402.84;5024679;28;20558;-65
2023/07/21 09:32:14;;;;;;;10.05;3.35;;;;;;;15.90;100.00;100402.75;5019076;28;20046;-64
2023/07/21 09:35:01;;;;;;;9.80;3.28;;;;;;;15.78;100.00;100408.84;5022347;28;20046;-64
2023/07/21 09:37:29;;;;;;;9.52;3.05;;;;;;;15.82;100.00;100401.56;5022198;28;20045;-64
2023/07/21 09:39:58;;;;;;;9.45;2.90;;;;;;;15.87;100.00;100410.88;5020236;28;20052;-65
2023/07/21 09:42:26;;;;;;;11.10;3.30;;;;;;;15.71;100.00;100405.69;5026087;28;20414;-65
2023/07/21 09:44:55;;;;;;;7.95;2.90;;;;;;;15.79;100.00;100405.22;5027967;28;20061;-65
2023/07/21 09:47:22;;;;;;;8.32;3.00;;;;;;;15.73;100.00;100406.44;5027373;28;20053;-65
2023/07/21 09:49:53;;;;;;;7.75;2.78;;;;;;;15.75;100.00;100407.22;5026717;28;20414;-65
2023/07/21 09:52:21;;;;;;;12.15;3.20;;;;;;;15.96;100.00;100409.44;5010496;28;20092;-65
2023/07/21 09:55:13;;;;;;;9.38;2.80;;;;;;;15.80;100.00;100399.03;5028194;28;20063;-66
2023/07/21 09:57:44;;;;;;;97.93;9.57;;;;;;;15.72;100.00;100406.53;5010586;28;20056;-67
2023/07/21 10:00:13;;;;;;;38.63;6.22;;;;;;;15.96;100.00;100411.22;5023100;28;20041;-66
2023/07/21 10:02:42;;;;;;;15.27;3.38;;;;;;;15.74;100.00;100402.91;5022209;28;20049;-66
2023/07/21 10:05:10;;;;;;;8.18;3.20;;;;;;;15.84;100.00;100395.22;5027773;28;20087;-67
2023/07/21 10:07:41;;;;;;;10.98;3.05;;;;;;;16.20;100.00;100408.75;5026653;28;20041;-66
2023/07/21 10:10:09;;;;;;;14.20;3.67;;;;;;;16.09;100.00;100410.28;5017660;28;20116;-65
2023/07/21 10:12:48;;;;;;;10.15;3.20;;;;;;;16.11;100.00;100412.84;5026763;28;20802;-67
2023/07/21 10:15:21;;;;;;;10.68;2.90;;;;;;;16.03;100.00;100420.44;5026902;28;20493;-66
2023/07/21 10:17:56;;;;;;;10.00;3.35;;;;;;;15.98;100.00;100419.91;5022487;28;20073;-66
2023/07/21 10:20:37;;;;;;;11.70;3.28;;;;;;;15.78;100.00;100415.91;5024961;28;20463;-65
2023/07/21 10:23:05;;;;;;;8.82;3.08;;;;;;;15.82;100.00;100420.03;5026595;28;20076;-65
2023/07/21 10:25:51;;;;;;;10.25;3.33;;;;;;;15.80;100.00;100414.84;5021125;28;20045;-66
2023/07/21 10:28:39;;;;;;;9.02;3.30;;;;;;;15.64;100.00;100395.66;5027544;28;20049;-65
2023/07/21 10:31:24;;;;;;;8.23;3.22;;;;;;;15.87;100.00;100416.16;5023010;28;20069;-65
2023/07/21 10:34:05;;;;;;;8.40;2.80;;;;;;;16.21;100.00;100421.03;5026939;28;20045;-66
2023/07/21 10:36:51;;;;;;;9.52;3.20;;;;;;;16.26;100.00;100418.94;5022391;28;20050;-66
2023/07/21 10:39:26;;;;;;;9.10;3.38;;;;;;;16.22;100.00;100414.78;5025313;28;20062;-66
2023/07/21 10:42:21;;;;;;;9.13;3.60;;;;;;;16.37;100.00;100419.03;5025486;28;20298;-66
2023/07/21 10:44:50;;;;;;;9.60;3.97;;;;;;;16.51;100.00;100420.75;5020649;28;20507;-65
2023/07/21 10:47:20;;;;;;;8.25;3.40;;;;;;;16.57;100.00;100419.50;5008924;28;20100;-66
2023/07/21 10:49:48;;;;;;;15.60;3.90;;;;;;;16.30;100.00;100412.47;5020055;28;20470;-66
2023/07/21 10:52:16;;;;;;;10.70;3.90;;;;;;;16.24;100.00;100419.03;5027041;28;20148;-66
2023/07/21 10:54:42;;;;;;;10.52;3.50;;;;;;;16.49;100.00;100425.31;5025920;28;20053;-66
2023/07/21 10:57:11;;;;;;;8.50;3.47;;;;;;;16.67;100.00;100418.75;5010441;28;20461;-66
2023/07/21 10:59:38;;;;;;;10.65;4.05;;;;;;;16.61;100.00;100423.63;5024455;28;20084;-66
2023/07/21 11:02:07;;;;;;;11.80;4.35;;;;;;;16.79;100.00;100419.72;5024110;28;20050;-66
2023/07/21 11:04:38;;;;;;;10.77;3.40;;;;;;;17.02;100.00;100418.16;5008733;28;20139;-65
2023/07/21 11:07:05;;;;;;;8.98;3.60;;;;;;;17.17;100.00;100425.97;5021623;28;20076;-66
2023/07/21 11:09:43;;;;;;;10.68;3.83;;;;;;;17.03;100.00;100416.38;5024419;28;20112;-67
2023/07/21 11:12:11;;;;;;;11.35;3.92;;;;;;;17.19;100.00;100419.66;5025095;28;20436;-66
2023/07/21 11:14:38;;;;;;;9.90;3.35;;;;;;;17.58;100.00;100408.97;5025769;28;20543;-66
2023/07/21 11:17:06;;;;;;;8.98;3.50;;;;;;;17.63;100.00;100407.66;5028410;28;20447;-65
2023/07/21 11:19:34;;;;;;;13.60;4.35;;;;;;;17.40;100.00;100403.19;5027935;28;20495;-65
2023/07/21 11:22:05;;;;;;;10.25;3.70;;;;;;;17.64;100.00;100405.88;5027611;28;20045;-65